createdAt,value
2023-05-20T00:00:19.127Z,51.20
2023-05-20T00:01:19.188Z,49.57
2023-05-20T00:02:19.180Z,54.01
2023-05-20T00:03:19.188Z,53.95
2023-05-20T00:04:19.232Z,53.01
2023-05-20T00:05:19.081Z,55.28
2023-05-20T00:06:19.100Z,55.14
2023-05-20T00:07:19.083Z,50.15
2023-05-20T00:08:19.076Z,53.13
2023-05-20T00:09:19.063Z,51.33
2023-05-20T00:10:19.062Z,50.79
2023-05-20T00:11:19.043Z,54.10
2023-05-20T00:12:19.047Z,58.79
2023-05-20T00:13:19.033Z,53.34
2023-05-20T00:14:19.036Z,53.88
2023-05-20T00:15:19.020Z,57.34
2023-05-20T00:16:19.079Z,57.43
2023-05-20T00:17:19.016Z,52.46
2023-05-20T00:18:19.018Z,56.02
2023-05-20T00:19:19.017Z,59.71
2023-05-20T00:20:18.991Z,55.03
2023-05-20T00:21:18.994Z,59.88
2023-05-20T00:22:18.993Z,56.00
2023-05-20T00:23:18.982Z,63.32
2023-05-20T00:24:18.965Z,64.13
2023-05-20T00:25:18.956Z,59.63
2023-05-20T00:26:18.957Z,59.08
2023-05-20T00:27:18.970Z,61.65
2023-05-20T00:28:18.941Z,61.63
2023-05-20T00:29:18.917Z,55.93
2023-05-20T00:30:18.937Z,59.34
2023-05-20T00:31:18.966Z,61.32
2023-05-20T00:32:19.015Z,59.19
2023-05-20T00:33:19.185Z,64.45
2023-05-20T00:34:19.001Z,68.72
2023-05-20T00:35:19.027Z,72.40
2023-05-20T00:36:19.022Z,72.56
2023-05-20T00:37:19.054Z,65.19
2023-05-20T00:38:19.081Z,67.32
2023-05-20T00:39:19.091Z,63.79
2023-05-20T00:40:19.106Z,64.73
2023-05-20T00:41:19.109Z,66.54
2023-05-20T00:42:19.126Z,67.30
2023-05-20T00:43:19.152Z,68.23
2023-05-20T00:44:19.188Z,65.93
2023-05-20T00:45:19.195Z,70.08
2023-05-20T00:46:19.246Z,71.40
2023-05-20T00:47:19.245Z,68.55
2023-05-20T00:48:19.262Z,72.88
2023-05-20T00:49:19.276Z,77.31
2023-05-20T00:50:19.297Z,78.31
2023-05-20T00:51:19.308Z,77.78
2023-05-20T00:52:19.307Z,77.07
2023-05-20T00:53:19.338Z,80.22
2023-05-20T00:54:19.356Z,77.01
2023-05-20T00:55:19.365Z,78.05
2023-05-20T00:56:19.389Z,83.31
2023-05-20T00:57:19.417Z,86.15
2023-05-20T00:58:19.478Z,84.48
2023-05-20T00:59:19.465Z,85.28
2023-05-20T01:00:19.487Z,87.31
2023-05-20T01:01:19.542Z,88.59
2023-05-20T01:02:19.573Z,84.51
2023-05-20T01:03:19.613Z,86.40
2023-05-20T01:04:19.569Z,92.02
2023-05-20T01:05:19.576Z,86.35
2023-05-20T01:06:19.573Z,86.26
2023-05-20T01:07:19.745Z,84.88
2023-05-20T01:08:19.649Z,83.28
2023-05-20T01:09:19.631Z,81.55
2023-05-20T01:10:19.669Z,81.05
2023-05-20T01:11:19.654Z,80.47
2023-05-20T01:12:19.674Z,84.25
2023-05-20T01:13:19.702Z,79.81
2023-05-20T01:14:19.718Z,79.07
2023-05-20T01:15:19.817Z,72.82
2023-05-20T01:16:19.909Z,72.72
2023-05-20T01:17:19.924Z,72.66
2023-05-20T01:18:19.823Z,75.55
2023-05-20T01:19:19.862Z,75.78
2023-05-20T01:20:19.881Z,69.39
2023-05-20T01:21:19.888Z,69.34
2023-05-20T01:22:19.930Z,74.16
2023-05-20T01:23:19.938Z,71.82
2023-05-20T01:24:19.975Z,70.20
2023-05-20T01:25:20.001Z,70.52
2023-05-20T01:26:20.022Z,71.19
2023-05-20T01:27:20.054Z,70.02
2023-05-20T01:28:20.084Z,72.67
2023-05-20T01:29:20.119Z,83.20
2023-05-20T01:30:20.159Z,82.86
2023-05-20T01:31:20.215Z,80.11
2023-05-20T01:32:20.171Z,85.97
2023-05-20T01:33:20.210Z,82.31
2023-05-20T01:34:20.258Z,82.77
2023-05-20T01:35:20.271Z,85.12
2023-05-20T01:36:20.338Z,90.23
2023-05-20T01:37:20.326Z,87.47
2023-05-20T01:38:20.358Z,87.92
2023-05-20T01:39:20.396Z,90.35
2023-05-20T01:40:20.390Z,90.73
2023-05-20T01:41:20.434Z,90.88
2023-05-20T01:42:20.446Z,86.14
2023-05-20T01:43:20.461Z,86.82
2023-05-20T01:44:20.480Z,88.85
2023-05-20T01:45:20.493Z,90.27
2023-05-20T01:46:20.621Z,88.33
2023-05-20T01:47:20.538Z,88.95
2023-05-20T01:48:20.591Z,92.74
2023-05-20T01:49:20.569Z,97.34
2023-05-20T01:50:20.586Z,91.46
2023-05-20T01:51:20.609Z,93.41
2023-05-20T01:52:20.655Z,91.64
2023-05-20T01:53:20.669Z,92.23
2023-05-20T01:54:20.690Z,92.68
2023-05-20T01:55:20.707Z,89.46
2023-05-20T01:56:20.749Z,88.41
2023-05-20T01:57:20.769Z,94.18
2023-05-20T01:58:20.791Z,90.21
2023-05-20T01:59:20.826Z,91.16
2023-05-20T02:00:20.866Z,90.23
2023-05-20T02:01:20.950Z,90.51
2023-05-20T02:02:20.890Z,90.37
2023-05-20T02:03:20.958Z,87.18
2023-05-20T02:04:20.929Z,89.26
2023-05-20T02:05:21.050Z,89.77
2023-05-20T02:06:21.030Z,88.45
2023-05-20T02:07:20.985Z,91.15
2023-05-20T02:08:21.006Z,91.89
2023-05-20T02:09:21.017Z,93.30
2023-05-20T02:10:21.080Z,93.13
2023-05-20T02:11:21.081Z,94.74
2023-05-20T02:12:21.118Z,96.76
2023-05-20T02:13:21.131Z,97.06
2023-05-20T02:14:21.149Z,95.95
2023-05-20T02:15:21.180Z,99.95
2023-05-20T02:16:21.250Z,100.44
2023-05-20T02:17:21.216Z,105.29
2023-05-20T02:18:21.241Z,104.36
2023-05-20T02:19:21.310Z,105.56
2023-05-20T02:20:21.298Z,109.55
2023-05-20T02:21:21.334Z,103.37
2023-05-20T02:22:21.355Z,105.92
2023-05-20T02:23:21.394Z,108.50
2023-05-20T02:24:21.400Z,107.22
2023-05-20T02:25:21.432Z,108.37
2023-05-20T02:26:21.478Z,110.31
2023-05-20T02:27:21.526Z,109.79
2023-05-20T02:28:21.534Z,111.18
2023-05-20T02:29:21.575Z,110.37
2023-05-20T02:30:21.607Z,108.93
2023-05-20T02:31:21.706Z,109.79
2023-05-20T02:32:21.659Z,109.39
2023-05-20T02:33:21.741Z,111.53
2023-05-20T02:34:21.886Z,113.97
2023-05-20T02:35:21.745Z,114.66
2023-05-20T02:36:21.791Z,111.32
2023-05-20T02:37:21.835Z,112.53
2023-05-20T02:38:21.845Z,112.37
2023-05-20T02:39:21.886Z,113.73
2023-05-20T02:40:21.927Z,113.40
2023-05-20T02:41:22.010Z,115.47
2023-05-20T02:42:22.005Z,120.01
2023-05-20T02:43:22.062Z,122.02
2023-05-20T02:44:22.087Z,120.10
2023-05-20T02:45:22.123Z,122.98
2023-05-20T02:46:22.180Z,116.90
2023-05-20T02:47:22.217Z,120.53
2023-05-20T02:48:22.233Z,122.03
2023-05-20T02:49:22.231Z,120.25
2023-05-20T02:50:22.254Z,122.91
2023-05-20T02:51:22.278Z,122.68
2023-05-20T02:52:22.314Z,126.41
2023-05-20T02:53:22.327Z,123.91
2023-05-20T02:54:22.394Z,123.67
2023-05-20T02:55:22.432Z,122.01
2023-05-20T02:56:22.449Z,124.96
2023-05-20T02:57:22.470Z,124.76
2023-05-20T02:58:22.495Z,120.62
2023-05-20T02:59:22.532Z,120.74
2023-05-20T03:00:22.543Z,121.36
2023-05-20T03:01:22.614Z,122.55
2023-05-20T03:02:22.658Z,122.60
2023-05-20T03:03:22.645Z,118.43
2023-05-20T03:04:22.857Z,119.19
2023-05-20T03:05:22.870Z,123.48
2023-05-20T03:06:22.836Z,121.14
2023-05-20T03:07:22.888Z,123.43
2023-05-20T03:08:22.798Z,123.10
2023-05-20T03:09:22.812Z,122.96
2023-05-20T03:10:22.840Z,124.52
2023-05-20T03:11:22.905Z,121.52
2023-05-20T03:12:22.919Z,117.66
2023-05-20T03:13:22.972Z,123.49
2023-05-20T03:14:22.949Z,122.75
2023-05-20T03:15:22.971Z,125.30
2023-05-20T03:16:23.222Z,120.85
2023-05-20T03:17:23.091Z,122.48
2023-05-20T03:18:23.074Z,122.92
2023-05-20T03:19:23.214Z,123.99
2023-05-20T03:20:23.139Z,125.70
2023-05-20T03:21:23.173Z,124.35
2023-05-20T03:22:23.213Z,127.80
2023-05-20T03:23:23.272Z,125.60
2023-05-20T03:24:23.305Z,128.76
2023-05-20T03:25:23.327Z,127.14
2023-05-20T03:26:23.370Z,127.28
2023-05-20T03:27:23.374Z,125.24
2023-05-20T03:28:23.426Z,124.90
2023-05-20T03:29:23.453Z,122.70
2023-05-20T03:30:23.466Z,124.76
2023-05-20T03:31:23.527Z,126.30
2023-05-20T03:32:23.544Z,126.34
2023-05-20T03:33:23.605Z,129.99
2023-05-20T03:34:23.615Z,129.49
2023-05-20T03:35:23.651Z,131.37
2023-05-20T03:36:23.691Z,130.21
2023-05-20T03:37:23.763Z,127.96
2023-05-20T03:38:23.792Z,125.53
2023-05-20T03:39:23.814Z,128.48
2023-05-20T03:40:23.881Z,130.43
2023-05-20T03:41:23.934Z,133.27
2023-05-20T03:42:23.946Z,131.07
2023-05-20T03:43:23.984Z,131.46
2023-05-20T03:44:24.032Z,126.48
2023-05-20T03:45:24.052Z,128.99
2023-05-20T03:46:24.135Z,127.97
2023-05-20T03:47:24.108Z,127.15
2023-05-20T03:48:24.175Z,127.42
2023-05-20T03:49:24.204Z,128.73
2023-05-20T03:50:24.224Z,129.76
2023-05-20T03:51:24.274Z,124.92
2023-05-20T03:52:24.314Z,123.89
2023-05-20T03:53:24.344Z,126.73
2023-05-20T03:54:24.371Z,127.81
2023-05-20T03:55:24.384Z,131.81
2023-05-20T03:56:24.449Z,132.52
2023-05-20T03:57:24.466Z,134.90
2023-05-20T03:58:24.526Z,134.30
2023-05-20T03:59:24.558Z,135.58
2023-05-20T04:00:24.564Z,134.53
2023-05-20T04:01:24.584Z,134.71
2023-05-20T04:02:24.761Z,139.51
2023-05-20T04:03:24.748Z,140.77
2023-05-20T04:04:24.791Z,139.00
2023-05-20T04:05:24.735Z,143.13
2023-05-20T04:06:24.749Z,142.52
2023-05-20T04:07:24.809Z,145.29
2023-05-20T04:08:24.827Z,145.03
2023-05-20T04:09:24.864Z,142.97
2023-05-20T04:10:24.917Z,144.22
2023-05-20T04:11:24.969Z,144.01
2023-05-20T04:12:24.991Z,144.72
2023-05-20T04:13:25.046Z,142.99
2023-05-20T04:14:25.066Z,141.91
2023-05-20T04:15:25.109Z,141.27
2023-05-20T04:16:25.114Z,142.15
2023-05-20T04:17:25.162Z,142.62
2023-05-20T04:18:25.177Z,141.61
2023-05-20T04:19:25.216Z,138.93
2023-05-20T04:20:25.286Z,137.35
2023-05-20T04:21:25.270Z,136.15
2023-05-20T04:22:25.325Z,134.89
2023-05-20T04:23:25.368Z,135.19
2023-05-20T04:24:25.425Z,132.71
2023-05-20T04:25:25.457Z,133.61
2023-05-20T04:26:25.596Z,133.59
2023-05-20T04:27:25.518Z,134.04
2023-05-20T04:28:25.571Z,133.42
2023-05-20T04:29:25.614Z,129.10
2023-05-20T04:30:25.678Z,131.20
2023-05-20T04:31:25.729Z,130.52
2023-05-20T04:32:25.756Z,126.75
2023-05-20T04:33:25.767Z,129.19
2023-05-20T04:34:25.780Z,131.47
2023-05-20T04:35:25.840Z,131.86
2023-05-20T04:36:25.823Z,132.59
2023-05-20T04:37:25.878Z,133.65
2023-05-20T04:38:28.148Z,140.59
2023-05-20T04:39:25.935Z,143.26
2023-05-20T04:40:25.924Z,148.39
2023-05-20T04:41:25.915Z,147.60
2023-05-20T04:42:25.912Z,149.70
2023-05-20T04:43:26.009Z,151.28
2023-05-20T04:44:25.924Z,151.26
2023-05-20T04:45:25.889Z,155.54
2023-05-20T04:46:25.902Z,155.50
2023-05-20T04:47:26.000Z,158.75
2023-05-20T04:48:26.021Z,159.33
2023-05-20T04:49:25.854Z,160.36
2023-05-20T04:50:25.854Z,155.42
2023-05-20T04:51:25.833Z,157.84
2023-05-20T04:52:25.832Z,158.99
2023-05-20T04:53:25.816Z,159.70
2023-05-20T04:54:25.822Z,158.01
2023-05-20T04:55:25.826Z,162.08
2023-05-20T04:56:25.827Z,159.42
2023-05-20T04:57:25.819Z,161.33
2023-05-20T04:58:25.800Z,163.78
2023-05-20T04:59:25.808Z,159.93
2023-05-20T05:00:25.802Z,162.26
2023-05-20T05:01:25.820Z,164.94
2023-05-20T05:02:25.850Z,162.93
2023-05-20T05:03:25.860Z,163.47
2023-05-20T05:04:25.924Z,164.89
2023-05-20T05:05:25.753Z,164.59
2023-05-20T05:06:25.879Z,165.85
2023-05-20T05:07:25.732Z,168.05
2023-05-20T05:08:25.747Z,167.15
2023-05-20T05:09:25.919Z,166.01
2023-05-20T05:10:25.733Z,167.77
2023-05-20T05:11:25.711Z,165.63
2023-05-20T05:12:25.696Z,165.54
2023-05-20T05:13:25.689Z,166.41
2023-05-20T05:14:25.680Z,168.36
2023-05-20T05:15:25.684Z,167.47
2023-05-20T05:16:25.729Z,165.33
2023-05-20T05:17:25.677Z,167.52
2023-05-20T05:18:25.674Z,167.21
2023-05-20T05:19:25.689Z,174.54
2023-05-20T05:20:25.645Z,175.90
2023-05-20T05:21:25.650Z,174.43
2023-05-20T05:22:25.638Z,171.21
2023-05-20T05:23:25.652Z,177.57
2023-05-20T05:24:25.630Z,175.56
2023-05-20T05:25:25.631Z,176.09
2023-05-20T05:26:25.611Z,177.37
2023-05-20T05:27:25.601Z,180.29
2023-05-20T05:28:25.636Z,181.46
2023-05-20T05:29:25.595Z,191.93
2023-05-20T05:30:25.590Z,198.51
2023-05-20T05:31:25.581Z,202.21
2023-05-20T05:32:25.688Z,197.71
2023-05-20T05:33:25.586Z,194.51
2023-05-20T05:34:25.544Z,193.97
2023-05-20T05:35:25.564Z,192.34
2023-05-20T05:36:25.526Z,194.92
2023-05-20T05:37:25.527Z,192.43
2023-05-20T05:38:25.512Z,187.39
2023-05-20T05:39:25.519Z,187.44
2023-05-20T05:40:25.505Z,186.91
2023-05-20T05:41:25.502Z,184.52
2023-05-20T05:42:25.500Z,185.14
2023-05-20T05:43:25.486Z,182.76
2023-05-20T05:44:25.483Z,183.55
2023-05-20T05:45:25.475Z,182.53
2023-05-20T05:46:25.548Z,180.64
2023-05-20T05:47:25.493Z,181.95
2023-05-20T05:48:25.452Z,179.98
2023-05-20T05:49:25.455Z,176.10
2023-05-20T05:50:25.512Z,177.92
2023-05-20T05:51:25.438Z,174.22
2023-05-20T05:52:25.417Z,176.13
2023-05-20T05:53:25.418Z,178.12
2023-05-20T05:54:25.418Z,177.30
2023-05-20T05:55:25.404Z,179.10
2023-05-20T05:56:25.410Z,178.72
2023-05-20T05:57:25.471Z,178.81
2023-05-20T05:58:25.517Z,182.75
2023-05-20T05:59:25.564Z,182.01
2023-05-20T06:00:25.579Z,186.28
2023-05-20T06:01:25.683Z,180.98
2023-05-20T06:02:25.723Z,180.42
2023-05-20T06:03:25.771Z,184.23
2023-05-20T06:04:25.826Z,184.28
2023-05-20T06:05:28.198Z,180.61
2023-05-20T06:06:25.840Z,183.77
2023-05-20T06:07:25.803Z,184.76
2023-05-20T06:08:25.810Z,180.65
2023-05-20T06:09:25.783Z,178.48
2023-05-20T06:10:25.790Z,181.25
2023-05-20T06:11:25.785Z,179.28
2023-05-20T06:12:25.778Z,178.29
2023-05-20T06:13:25.781Z,180.90
2023-05-20T06:14:25.784Z,182.51
2023-05-20T06:15:25.773Z,178.94
2023-05-20T06:16:25.805Z,178.39
2023-05-20T06:17:25.745Z,182.36
2023-05-20T06:18:25.954Z,181.50
2023-05-20T06:19:25.766Z,184.06
2023-05-20T06:20:25.739Z,181.41
2023-05-20T06:21:25.726Z,182.80
2023-05-20T06:22:25.721Z,182.87
2023-05-20T06:23:25.729Z,181.86
2023-05-20T06:24:25.693Z,182.11
2023-05-20T06:25:25.713Z,182.82
2023-05-20T06:26:25.692Z,182.98
2023-05-20T06:27:25.684Z,183.08
2023-05-20T06:28:25.674Z,183.26
2023-05-20T06:29:25.660Z,182.91
2023-05-20T06:30:25.674Z,180.29
2023-05-20T06:31:25.786Z,184.55
2023-05-20T06:32:25.690Z,186.72
2023-05-20T06:33:25.629Z,183.48
2023-05-20T06:34:25.633Z,183.33
2023-05-20T06:35:25.628Z,183.17
2023-05-20T06:36:25.606Z,185.20
2023-05-20T06:37:25.614Z,182.24
2023-05-20T06:38:25.618Z,180.83
2023-05-20T06:39:25.596Z,181.09
2023-05-20T06:40:25.585Z,178.58
2023-05-20T06:41:25.575Z,175.60
2023-05-20T06:42:25.565Z,178.70
2023-05-20T06:43:25.576Z,179.00
2023-05-20T06:44:25.565Z,178.18
2023-05-20T06:45:25.536Z,177.92
2023-05-20T06:46:25.606Z,173.20
2023-05-20T06:47:25.551Z,174.90
2023-05-20T06:48:25.529Z,174.35
2023-05-20T06:49:25.528Z,171.53
2023-05-20T06:50:25.506Z,170.27
2023-05-20T06:51:25.514Z,169.18
2023-05-20T06:52:25.542Z,169.75
2023-05-20T06:53:25.570Z,167.79
2023-05-20T06:54:25.608Z,166.62
2023-05-20T06:55:25.616Z,168.29
2023-05-20T06:56:25.813Z,165.03
2023-05-20T06:57:25.674Z,166.54
2023-05-20T06:58:25.712Z,162.69
2023-05-20T06:59:25.768Z,162.17
2023-05-20T07:00:25.852Z,161.19
2023-05-20T07:01:25.879Z,160.74
2023-05-20T07:02:25.847Z,155.53
2023-05-20T07:03:25.906Z,155.01
2023-05-20T07:04:25.885Z,156.83
2023-05-20T07:05:25.914Z,152.76
2023-05-20T07:06:25.964Z,157.17
2023-05-20T07:07:25.936Z,157.44
2023-05-20T07:08:25.946Z,159.31
2023-05-20T07:09:25.987Z,161.84
2023-05-20T07:10:26.041Z,160.32
2023-05-20T07:11:26.035Z,159.11
2023-05-20T07:12:26.030Z,160.06
2023-05-20T07:13:26.165Z,159.76
2023-05-20T07:14:26.116Z,161.88
2023-05-20T07:15:26.081Z,159.26
2023-05-20T07:16:26.264Z,159.25
2023-05-20T07:17:26.128Z,158.86
2023-05-20T07:18:26.112Z,161.59
2023-05-20T07:19:26.217Z,159.25
2023-05-20T07:20:26.131Z,155.95
2023-05-20T07:21:26.130Z,157.81
2023-05-20T07:22:26.181Z,155.97
2023-05-20T07:23:26.299Z,158.15
2023-05-20T07:24:26.402Z,158.57
2023-05-20T07:25:26.411Z,156.58
2023-05-20T07:26:26.414Z,157.53
2023-05-20T07:27:26.392Z,154.26
2023-05-20T07:28:26.475Z,157.68
2023-05-20T07:29:26.435Z,153.91
2023-05-20T07:30:26.501Z,152.34
2023-05-20T07:31:26.563Z,155.06
2023-05-20T07:32:26.596Z,155.68
2023-05-20T07:33:26.663Z,156.89
2023-05-20T07:34:26.633Z,156.03
2023-05-20T07:35:26.695Z,153.66
2023-05-20T07:36:26.792Z,152.98
2023-05-20T07:37:26.878Z,150.48
2023-05-20T07:38:26.901Z,150.45
2023-05-20T07:39:26.949Z,147.40
2023-05-20T07:40:26.998Z,148.55
2023-05-20T07:41:27.089Z,148.64
2023-05-20T07:42:27.132Z,149.40
2023-05-20T07:43:27.200Z,147.76
2023-05-20T07:44:27.277Z,147.55
2023-05-20T07:45:27.425Z,143.65
2023-05-20T07:46:27.417Z,144.18
2023-05-20T07:47:27.470Z,141.48
2023-05-20T07:48:27.491Z,140.10
2023-05-20T07:49:27.565Z,138.08
2023-05-20T07:50:27.671Z,137.32
2023-05-20T07:51:27.724Z,137.61
2023-05-20T07:52:27.681Z,139.20
2023-05-20T07:53:27.730Z,137.87
2023-05-20T07:54:27.779Z,132.93
2023-05-20T07:55:27.832Z,131.81
2023-05-20T07:56:27.852Z,131.24
2023-05-20T07:57:27.902Z,133.83
2023-05-20T07:58:27.948Z,133.27
2023-05-20T07:59:28.017Z,134.77
2023-05-20T08:00:28.059Z,132.13
2023-05-20T08:01:28.091Z,130.65
2023-05-20T08:02:28.165Z,129.25
2023-05-20T08:03:28.324Z,127.78
2023-05-20T08:04:28.245Z,128.82
2023-05-20T08:05:28.273Z,130.84
2023-05-20T08:06:29.882Z,130.21
2023-05-20T08:07:28.381Z,127.80
2023-05-20T08:08:28.424Z,127.51
2023-05-20T08:09:28.493Z,127.85
2023-05-20T08:10:28.504Z,122.96
2023-05-20T08:11:28.528Z,122.45
2023-05-20T08:12:28.570Z,123.84
2023-05-20T08:13:28.755Z,122.46
2023-05-20T08:14:28.667Z,124.70
2023-05-20T08:15:28.682Z,122.75
2023-05-20T08:16:28.743Z,120.16
2023-05-20T08:17:28.768Z,117.98
2023-05-20T08:18:28.797Z,118.92
2023-05-20T08:19:28.917Z,117.89
2023-05-20T08:20:28.871Z,115.95
2023-05-20T08:21:28.961Z,112.68
2023-05-20T08:22:28.950Z,113.44
2023-05-20T08:23:29.097Z,112.63
2023-05-20T08:24:29.024Z,109.64
2023-05-20T08:25:29.053Z,110.84
2023-05-20T08:26:29.066Z,110.62
2023-05-20T08:27:29.114Z,108.03
2023-05-20T08:28:29.366Z,107.69
2023-05-20T08:29:29.287Z,105.85
2023-05-20T08:30:29.229Z,104.88
2023-05-20T08:31:29.260Z,102.66
2023-05-20T08:32:29.269Z,101.80
2023-05-20T08:33:29.295Z,100.77
2023-05-20T08:34:29.316Z,97.00
2023-05-20T08:35:29.292Z,97.81
2023-05-20T08:36:29.318Z,96.00
2023-05-20T08:37:29.324Z,95.86
2023-05-20T08:38:29.327Z,91.96
2023-05-20T08:39:29.365Z,94.29
2023-05-20T08:40:29.436Z,92.02
2023-05-20T08:41:29.356Z,91.08
2023-05-20T08:42:29.428Z,88.12
2023-05-20T08:43:29.386Z,86.45
2023-05-20T08:44:29.453Z,80.01
2023-05-20T08:45:29.517Z,75.22
2023-05-20T08:46:29.597Z,74.84
2023-05-20T08:47:29.540Z,76.90
2023-05-20T08:48:29.544Z,76.51
2023-05-20T08:49:29.543Z,77.68
2023-05-20T08:50:29.528Z,76.10
2023-05-20T08:51:29.554Z,73.95
2023-05-20T08:52:29.551Z,72.38
2023-05-20T08:53:29.586Z,68.08
2023-05-20T08:54:29.611Z,64.58
2023-05-20T08:55:29.614Z,64.20
2023-05-20T08:56:31.006Z,63.63
2023-05-20T08:57:29.618Z,65.26
2023-05-20T08:58:29.671Z,62.71
2023-05-20T08:59:29.632Z,63.03
2023-05-20T09:00:29.643Z,61.31
2023-05-20T09:01:29.746Z,61.07
2023-05-20T09:02:29.700Z,58.58
2023-05-20T09:03:29.732Z,55.96
2023-05-20T09:04:29.770Z,51.60
2023-05-20T09:05:29.688Z,49.91
2023-05-20T09:06:29.692Z,49.40
2023-05-20T09:07:29.713Z,48.04
2023-05-20T09:08:29.694Z,48.72
2023-05-20T09:09:29.673Z,44.19
2023-05-20T09:10:29.693Z,43.47
2023-05-20T09:11:29.680Z,41.66
2023-05-20T09:12:29.803Z,42.05
2023-05-20T09:13:29.693Z,40.12
2023-05-20T09:14:29.687Z,40.61
2023-05-20T09:15:29.687Z,40.46
2023-05-20T09:16:29.799Z,39.84
2023-05-20T09:17:29.806Z,39.73
2023-05-20T09:18:29.698Z,35.72
2023-05-20T09:19:29.759Z,33.62
2023-05-20T09:20:29.713Z,29.18
2023-05-20T09:21:29.742Z,28.15
2023-05-20T09:22:29.759Z,30.82
2023-05-20T09:23:29.769Z,29.03
2023-05-20T09:24:29.775Z,26.56
2023-05-20T09:25:29.832Z,26.57
2023-05-20T09:26:29.839Z,26.21
2023-05-20T09:27:29.859Z,27.81
2023-05-20T09:28:29.891Z,25.00
2023-05-20T09:29:29.944Z,25.59
2023-05-20T09:30:29.964Z,27.03
2023-05-20T09:31:30.025Z,26.26
2023-05-20T09:32:30.135Z,25.00
2023-05-20T09:33:30.088Z,26.57
2023-05-20T09:34:30.097Z,30.01
2023-05-20T09:35:30.101Z,30.38
2023-05-20T09:36:30.169Z,30.19
2023-05-20T09:37:30.233Z,28.09
2023-05-20T09:38:30.301Z,27.02
2023-05-20T09:39:30.334Z,28.63
2023-05-20T09:40:30.403Z,25.14
2023-05-20T09:41:30.465Z,28.43
2023-05-20T09:42:30.514Z,29.18
2023-05-20T09:43:30.598Z,28.44
2023-05-20T09:44:30.632Z,29.07
2023-05-20T09:45:30.715Z,28.42
2023-05-20T09:46:30.800Z,31.28
2023-05-20T09:47:30.832Z,33.44
2023-05-20T09:48:33.921Z,29.53
2023-05-20T09:49:30.844Z,33.52
2023-05-20T09:50:30.839Z,32.41
2023-05-20T09:51:30.850Z,30.10
2023-05-20T09:52:30.948Z,30.98
2023-05-20T09:53:30.829Z,32.14
2023-05-20T09:54:30.832Z,32.82
2023-05-20T09:55:30.822Z,29.61
2023-05-20T09:56:30.818Z,27.82
2023-05-20T09:57:30.794Z,29.79
2023-05-20T09:58:30.800Z,31.47
2023-05-20T09:59:30.783Z,33.21
2023-05-20T10:00:30.800Z,32.96
2023-05-20T10:01:30.810Z,35.12
2023-05-20T10:02:30.892Z,35.67
2023-05-20T10:03:30.946Z,34.99
2023-05-20T10:04:30.791Z,36.98
2023-05-20T10:05:30.893Z,38.75
2023-05-20T10:06:30.752Z,39.49
2023-05-20T10:07:41.406Z,39.35
2023-05-20T10:08:31.818Z,39.63
2023-05-20T10:09:30.765Z,39.79
2023-05-20T10:10:30.744Z,41.70
2023-05-20T10:11:30.726Z,45.32
2023-05-20T10:12:30.718Z,46.85
2023-05-20T10:13:30.741Z,47.69
2023-05-20T10:14:30.713Z,44.58
2023-05-20T10:15:30.749Z,47.67
2023-05-20T10:16:30.794Z,46.84
2023-05-20T10:17:30.715Z,47.72
2023-05-20T10:18:30.740Z,45.70
2023-05-20T10:19:31.052Z,50.90
2023-05-20T10:20:30.837Z,52.55
2023-05-20T10:21:30.890Z,52.53
2023-05-20T10:22:31.025Z,55.33
2023-05-20T10:23:30.988Z,54.13
2023-05-20T10:24:31.016Z,52.68
2023-05-20T10:25:31.063Z,57.88
2023-05-20T10:26:31.094Z,57.88
2023-05-20T10:27:31.160Z,60.43
2023-05-20T10:28:31.193Z,62.48
2023-05-20T10:29:31.254Z,61.03
2023-05-20T10:30:31.298Z,59.34
2023-05-20T10:31:31.445Z,61.12
2023-05-20T10:32:31.810Z,62.97
2023-05-20T10:33:31.441Z,63.96
2023-05-20T10:34:31.482Z,62.21
2023-05-20T10:35:31.639Z,65.75
2023-05-20T10:36:31.589Z,65.69
2023-05-20T10:37:31.638Z,64.00
2023-05-20T10:38:31.671Z,61.03
2023-05-20T10:39:31.724Z,63.87
2023-05-20T10:40:31.802Z,63.45
2023-05-20T10:41:31.811Z,64.85
2023-05-20T10:42:31.875Z,64.55
2023-05-20T10:43:31.905Z,65.75
2023-05-20T10:44:31.982Z,66.11
2023-05-20T10:45:32.008Z,66.13
2023-05-20T10:46:38.537Z,65.42
2023-05-20T10:47:33.080Z,65.52
2023-05-20T10:48:32.109Z,65.02
2023-05-20T10:49:32.019Z,57.70
2023-05-20T10:50:32.311Z,56.83
2023-05-20T10:51:32.011Z,54.26
2023-05-20T10:52:32.016Z,52.34
2023-05-20T10:53:34.096Z,48.95
2023-05-20T10:54:31.980Z,44.79
2023-05-20T10:55:31.974Z,43.85
2023-05-20T10:56:31.974Z,37.23
2023-05-20T10:57:31.961Z,32.00
2023-05-20T10:58:32.063Z,35.55
2023-05-20T10:59:32.087Z,26.61
2023-05-20T11:00:32.021Z,25.00
2023-05-20T11:01:31.954Z,25.57
2023-05-20T11:02:31.983Z,25.77
2023-05-20T11:03:32.028Z,25.20
2023-05-20T11:04:31.931Z,25.45
2023-05-20T11:05:31.924Z,28.03
2023-05-20T11:06:31.902Z,26.79
2023-05-20T11:07:31.905Z,25.00
2023-05-20T11:08:31.897Z,25.42
2023-05-20T11:09:31.905Z,26.24
2023-05-20T11:10:31.963Z,25.67
2023-05-20T11:11:31.873Z,24.92
2023-05-20T11:12:31.888Z,30.56
2023-05-20T11:13:31.863Z,30.22
2023-05-20T11:14:31.882Z,26.79
2023-05-20T11:15:31.859Z,27.38
2023-05-20T11:16:31.908Z,26.78
2023-05-20T11:17:31.873Z,25.50
2023-05-20T11:18:31.825Z,25.00
2023-05-20T11:19:31.893Z,28.54
2023-05-20T11:20:31.854Z,25.87
2023-05-20T11:21:31.821Z,26.11
2023-05-20T11:22:31.819Z,25.45
2023-05-20T11:23:31.803Z,25.00
2023-05-20T11:24:31.779Z,25.94
2023-05-20T11:25:31.770Z,26.01
2023-05-20T11:26:31.787Z,26.62
2023-05-20T11:27:31.757Z,25.73
2023-05-20T11:28:31.748Z,28.88
2023-05-20T11:29:31.755Z,25.00
2023-05-20T11:30:31.742Z,27.85
2023-05-20T11:31:31.748Z,29.49
2023-05-20T11:32:31.879Z,28.09
2023-05-20T11:33:31.728Z,30.59
2023-05-20T11:34:31.952Z,29.33
2023-05-20T11:35:31.717Z,26.93
2023-05-20T11:36:31.707Z,27.85
2023-05-20T11:37:31.764Z,25.72
2023-05-20T11:38:31.847Z,27.12
2023-05-20T11:39:31.908Z,26.25
2023-05-20T11:40:35.849Z,26.71
2023-05-20T11:41:32.957Z,26.83
2023-05-20T11:42:31.958Z,21.56
2023-05-20T11:43:31.945Z,20.32
2023-05-20T11:44:31.953Z,16.52
2023-05-20T11:45:31.946Z,13.84
2023-05-20T11:46:32.043Z,25.00
2023-05-20T11:47:31.928Z,26.08
2023-05-20T11:48:31.895Z,36.28
2023-05-20T11:49:31.914Z,33.06
2023-05-20T11:50:32.003Z,29.66
2023-05-20T11:51:31.996Z,28.25
2023-05-20T11:52:32.041Z,27.22
2023-05-20T11:53:32.127Z,25.22
2023-05-20T11:54:32.167Z,23.19
2023-05-20T11:55:32.202Z,30.92
2023-05-20T11:56:32.306Z,28.95
2023-05-20T11:57:32.566Z,26.64
2023-05-20T11:58:32.429Z,25.02
2023-05-20T11:59:32.439Z,25.18
2023-05-20T12:00:43.057Z,28.11
2023-05-20T12:01:33.496Z,28.20
2023-05-20T12:02:32.527Z,27.01
2023-05-20T12:03:32.587Z,23.96
2023-05-20T12:04:32.609Z,19.56
2023-05-20T12:05:32.468Z,17.42
2023-05-20T12:06:32.497Z,28.18
2023-05-20T12:07:32.449Z,31.57
2023-05-20T12:08:32.458Z,29.25
2023-05-20T12:09:32.449Z,28.49
2023-05-20T12:10:32.486Z,26.81
2023-05-20T12:11:32.423Z,25.33
2023-05-20T12:12:32.535Z,25.29
2023-05-20T12:13:34.996Z,29.90
2023-05-20T12:14:32.500Z,25.00
2023-05-20T12:15:32.428Z,25.49
2023-05-20T12:16:32.517Z,27.92
2023-05-20T12:17:32.436Z,28.43
2023-05-20T12:18:32.448Z,25.00
2023-05-20T12:19:33.757Z,25.00
2023-05-20T12:20:32.488Z,25.23
2023-05-20T12:21:32.398Z,25.48
2023-05-20T12:22:32.413Z,21.64
2023-05-20T12:23:32.388Z,26.00
2023-05-20T12:24:32.401Z,23.67
2023-05-20T12:25:32.360Z,26.21
2023-05-20T12:26:32.474Z,26.49
2023-05-20T12:27:32.390Z,25.75
2023-05-20T12:28:32.492Z,25.00
2023-05-20T12:29:32.356Z,25.43
2023-05-20T12:30:32.403Z,25.00
2023-05-20T12:31:34.600Z,30.28
2023-05-20T12:32:32.360Z,30.50
2023-05-20T12:33:32.316Z,30.61
2023-05-20T12:34:32.311Z,31.52
2023-05-20T12:35:32.284Z,31.79
2023-05-20T12:36:32.282Z,37.38
2023-05-20T12:37:32.290Z,38.10
2023-05-20T12:38:32.273Z,42.94
2023-05-20T12:39:32.288Z,42.24
2023-05-20T12:40:32.337Z,42.45